createdAt,value
2023-04-20T00:01:15.807Z,0.37
2023-04-20T00:03:42.998Z,0.10
2023-04-20T00:06:09.981Z,0.40
2023-04-20T00:08:36.952Z,0.23
2023-04-20T00:11:04.087Z,0.00
2023-04-20T00:13:31.030Z,0.10
2023-04-20T00:15:58.606Z,0.10
2023-04-20T00:18:26.662Z,0.30
2023-04-20T00:20:53.874Z,0.20
2023-04-20T00:23:21.210Z,0.10
2023-04-20T00:25:49.729Z,0.10
2023-04-20T00:28:16.874Z,0.10
2023-04-20T00:30:44.010Z,0.10
2023-04-20T00:33:11.240Z,0.50
2023-04-20T00:35:38.362Z,0.27
2023-04-20T00:38:05.989Z,0.27
2023-04-20T00:40:33.999Z,0.10
2023-04-20T00:43:11.653Z,0.10
2023-04-20T00:45:38.817Z,0.40
2023-04-20T00:48:06.438Z,0.20
2023-04-20T00:50:37.066Z,0.30
2023-04-20T00:53:07.814Z,0.50
2023-04-20T00:55:36.206Z,0.67
2023-04-20T00:58:04.403Z,0.53
2023-04-20T01:00:33.519Z,0.30
2023-04-20T01:03:00.550Z,0.27
2023-04-20T01:05:27.854Z,0.57
2023-04-20T01:07:55.825Z,0.20
2023-04-20T01:10:23.090Z,0.50
2023-04-20T01:12:51.595Z,0.43
2023-04-20T01:15:18.732Z,0.30
2023-04-20T01:17:47.760Z,0.20
2023-04-20T01:20:15.183Z,0.30
2023-04-20T01:22:51.327Z,0.33
2023-04-20T01:25:18.579Z,0.68
2023-04-20T01:27:46.643Z,1.07
2023-04-20T01:30:13.776Z,0.53
2023-04-20T01:32:41.049Z,0.53
2023-04-20T01:35:09.203Z,0.73
2023-04-20T01:37:38.715Z,0.50
2023-04-20T01:40:12.587Z,0.40
2023-04-20T01:42:44.400Z,0.40
2023-04-20T01:45:17.152Z,0.40
2023-04-20T01:47:50.973Z,0.40
2023-04-20T01:50:20.153Z,0.73
2023-04-20T01:52:50.973Z,0.60
2023-04-20T01:55:22.313Z,0.40
2023-04-20T01:57:49.529Z,0.43
2023-04-20T02:00:16.956Z,0.20
2023-04-20T02:02:44.409Z,0.50
2023-04-20T02:05:11.984Z,0.73
2023-04-20T02:07:39.002Z,0.40
2023-04-20T02:10:07.353Z,0.40
2023-04-20T02:12:34.440Z,0.60
2023-04-20T02:15:01.566Z,0.63
2023-04-20T02:17:29.038Z,0.40
2023-04-20T02:19:56.244Z,0.80
2023-04-20T02:22:23.307Z,1.40
2023-04-20T02:24:50.312Z,0.50
2023-04-20T02:27:17.871Z,0.80
2023-04-20T02:29:49.052Z,0.60
2023-04-20T02:32:21.065Z,0.43
2023-04-20T02:34:50.066Z,0.73
2023-04-20T02:37:17.751Z,0.67
2023-04-20T02:39:44.718Z,0.87
2023-04-20T02:42:11.812Z,0.77
2023-04-20T02:44:39.556Z,0.40
2023-04-20T02:47:06.713Z,1.37
2023-04-20T02:49:34.861Z,0.90
2023-04-20T02:52:02.457Z,0.70
2023-04-20T02:54:30.081Z,0.87
2023-04-20T02:56:59.005Z,1.00
2023-04-20T02:59:27.363Z,0.73
2023-04-20T03:02:04.002Z,0.80
2023-04-20T03:04:32.344Z,1.30
2023-04-20T03:07:26.226Z,0.70
2023-04-20T03:09:53.392Z,0.83
2023-04-20T03:12:28.378Z,0.60
2023-04-20T03:15:00.409Z,0.87
2023-04-20T03:17:53.075Z,0.80
2023-04-20T03:20:20.379Z,0.40
2023-04-20T03:22:47.777Z,0.83
2023-04-20T03:25:19.316Z,1.07
2023-04-20T03:27:55.335Z,1.37
2023-04-20T03:30:22.490Z,1.37
2023-04-20T03:32:55.887Z,0.53
2023-04-20T03:35:23.156Z,0.70
2023-04-20T03:37:50.396Z,0.83
2023-04-20T03:40:18.576Z,1.30
2023-04-20T03:42:45.884Z,1.00
2023-04-20T03:45:15.291Z,1.10
2023-04-20T03:50:55.779Z,0.87
2023-04-20T03:53:51.852Z,0.90
2023-04-20T04:15:16.018Z,1.70
2023-04-20T04:17:56.031Z,1.47
2023-04-20T04:20:23.929Z,1.03
2023-04-20T04:22:52.810Z,1.20
2023-04-20T04:25:42.250Z,0.97
2023-04-20T04:28:11.798Z,0.70
2023-04-20T04:30:47.313Z,0.60
2023-04-20T04:33:14.921Z,1.10
2023-04-20T04:35:48.800Z,1.00
2023-04-20T04:38:16.363Z,1.50
2023-04-20T04:40:47.109Z,0.73
2023-04-20T04:43:14.372Z,1.53
2023-04-20T04:45:50.127Z,1.23
2023-04-20T04:48:19.764Z,0.93
2023-04-20T04:50:47.073Z,1.00
2023-04-20T04:53:14.147Z,0.63
2023-04-20T04:55:41.190Z,1.27
2023-04-20T04:58:08.649Z,1.37
2023-04-20T05:00:36.068Z,1.43
2023-04-20T05:03:04.314Z,0.90
2023-04-20T05:05:35.628Z,1.23
2023-04-20T05:19:50.148Z,1.03
2023-04-20T05:22:25.409Z,1.83
2023-04-20T05:25:17.981Z,1.30
2023-04-20T05:28:08.028Z,1.70
2023-04-20T05:30:53.165Z,1.33
2023-04-20T05:33:43.155Z,1.50
2023-04-20T05:37:32.808Z,1.90
2023-04-20T05:40:14.148Z,1.10
2023-04-20T05:43:08.885Z,1.57
2023-04-20T05:46:17.665Z,0.93
2023-04-20T05:49:14.631Z,0.67
2023-04-20T05:52:05.274Z,0.85
2023-04-20T05:54:41.834Z,1.00
2023-04-20T05:57:21.945Z,0.90
2023-04-20T05:59:55.413Z,1.23
2023-04-20T06:03:13.940Z,1.13
2023-04-20T06:05:52.264Z,0.90
2023-04-20T06:08:25.518Z,1.07
2023-04-20T06:10:57.095Z,1.53
2023-04-20T06:13:24.888Z,1.17
2023-04-20T06:15:52.920Z,1.37
2023-04-20T06:18:20.411Z,1.77
2023-04-20T06:20:47.530Z,1.13
2023-04-20T06:23:14.456Z,0.67
2023-04-20T06:25:41.662Z,0.97
2023-04-20T06:28:08.922Z,1.03
2023-04-20T06:30:36.444Z,1.10
2023-04-20T06:33:03.794Z,1.10
2023-04-20T06:35:31.092Z,1.23
2023-04-20T06:37:58.160Z,1.27
2023-04-20T06:40:29.018Z,0.77
2023-04-20T06:42:55.976Z,0.80
2023-04-20T06:45:23.157Z,0.57
2023-04-20T06:47:50.282Z,0.67
2023-04-20T06:50:20.727Z,1.10
2023-04-20T06:52:48.459Z,0.87
2023-04-20T06:55:15.598Z,0.80
2023-04-20T06:57:43.922Z,1.17
2023-04-20T07:00:12.004Z,0.90
2023-04-20T07:02:51.705Z,0.73
2023-04-20T07:05:19.253Z,0.87
2023-04-20T07:07:46.677Z,1.23
2023-04-20T07:10:14.093Z,0.98
2023-04-20T07:12:43.111Z,0.70
2023-04-20T07:15:11.166Z,0.63
2023-04-20T07:17:38.327Z,0.60
2023-04-20T07:20:08.386Z,1.20
2023-04-20T07:22:36.417Z,0.50
2023-04-20T07:25:11.070Z,0.60
2023-04-20T07:27:40.026Z,0.20
2023-04-20T07:30:08.847Z,0.50
2023-04-20T07:32:38.619Z,0.40
2023-04-20T07:35:07.206Z,0.50
2023-04-20T07:37:34.591Z,0.38
2023-04-20T07:40:02.069Z,0.60
2023-04-20T07:42:29.797Z,0.28
2023-04-20T07:44:56.837Z,0.47
2023-04-20T07:47:23.761Z,0.80
2023-04-20T07:49:52.811Z,0.75
2023-04-20T07:52:19.817Z,0.73
2023-04-20T07:54:47.270Z,0.55
2023-04-20T07:57:15.147Z,0.50
2023-04-20T07:59:42.293Z,0.80
2023-04-20T08:02:09.662Z,0.43
2023-04-20T08:04:40.621Z,0.60
2023-04-20T08:07:08.575Z,0.25
2023-04-20T08:09:35.776Z,0.30
2023-04-20T08:12:05.782Z,0.20
2023-04-20T08:14:34.166Z,0.30
2023-04-20T08:17:01.643Z,0.20
2023-04-20T08:19:28.696Z,0.17
2023-04-20T08:21:55.951Z,0.38
2023-04-20T08:24:23.015Z,0.22
2023-04-20T08:26:50.042Z,0.30
2023-04-20T08:29:17.819Z,0.30
2023-04-20T08:31:44.935Z,0.10
2023-04-20T08:34:13.638Z,0.40
2023-04-20T08:36:40.785Z,0.10
2023-04-20T08:39:14.611Z,0.13
2023-04-20T08:41:41.771Z,0.20
2023-04-20T08:44:09.235Z,0.20
2023-04-20T08:46:37.330Z,0.10
2023-04-20T08:49:04.449Z,0.20
2023-04-20T08:51:32.563Z,0.10
2023-04-20T08:54:05.509Z,0.20
2023-04-20T08:56:36.681Z,0.52
2023-04-20T08:59:05.384Z,0.03
2023-04-20T09:01:35.628Z,0.57
2023-04-20T09:04:16.059Z,0.10
2023-04-20T09:06:50.740Z,0.08
2023-04-20T09:09:23.848Z,0.10
2023-04-20T09:12:24.606Z,0.00
2023-04-20T09:14:52.984Z,0.10
2023-04-20T09:17:34.147Z,0.00
2023-04-20T09:20:02.265Z,0.10
2023-04-20T09:22:33.095Z,0.00
2023-04-20T09:25:01.256Z,0.00
2023-04-20T09:27:28.694Z,0.20
2023-04-20T09:30:04.513Z,0.05
2023-04-20T09:32:32.977Z,0.30
2023-04-20T09:35:00.162Z,0.10
2023-04-20T09:37:27.224Z,0.00
2023-04-20T09:39:57.180Z,0.00
2023-04-20T09:42:24.233Z,0.00
2023-04-20T09:44:51.158Z,0.00
2023-04-20T09:47:21.371Z,0.00
2023-04-20T09:49:48.530Z,0.00
2023-04-20T09:52:18.876Z,0.00
2023-04-20T09:54:46.174Z,0.10
2023-04-20T09:57:13.548Z,0.00
2023-04-20T09:59:43.981Z,0.03
2023-04-20T10:02:12.508Z,0.03
2023-04-20T10:04:53.269Z,0.10
2023-04-20T10:07:27.352Z,0.00
2023-04-20T10:10:14.200Z,0.00
2023-04-20T10:12:51.190Z,0.08
2023-04-20T10:15:18.556Z,0.00
2023-04-20T10:17:46.096Z,0.00
2023-04-20T10:20:24.346Z,0.00
2023-04-20T10:22:52.108Z,0.10
2023-04-20T10:25:28.359Z,0.08
2023-04-20T10:28:09.639Z,0.00
2023-04-20T10:30:37.555Z,0.10
2023-04-20T10:33:08.470Z,0.00
2023-04-20T10:35:43.860Z,0.00
2023-04-20T10:38:16.270Z,0.00
2023-04-20T10:40:43.574Z,0.00
2023-04-20T10:43:21.692Z,0.00
2023-04-20T10:45:50.015Z,0.00
2023-04-20T10:48:18.332Z,0.10
2023-04-20T10:50:46.033Z,0.00
2023-04-20T10:53:23.710Z,0.10
2023-04-20T10:56:00.702Z,0.20
2023-04-20T10:58:27.813Z,0.00
2023-04-20T11:01:49.289Z,0.00
2023-04-20T11:04:18.819Z,0.00
2023-04-20T11:06:48.176Z,0.00
2023-04-20T11:09:22.812Z,0.00
2023-04-20T11:12:00.786Z,0.10
2023-04-20T11:14:28.302Z,0.00
2023-04-20T11:16:56.910Z,0.00
2023-04-20T11:19:29.824Z,0.00
2023-04-20T11:21:57.195Z,0.00
2023-04-20T11:24:28.493Z,0.00
2023-04-20T11:26:56.260Z,0.00
2023-04-20T11:29:34.149Z,0.00
2023-04-20T11:32:10.921Z,0.10
2023-04-20T11:34:41.848Z,0.10
2023-04-20T11:37:12.970Z,0.00
2023-04-20T11:39:40.159Z,0.00
2023-04-20T11:42:07.159Z,0.00
2023-04-20T11:44:36.741Z,0.00
2023-04-20T11:47:04.129Z,0.00
2023-04-20T11:49:33.248Z,0.00
2023-04-20T11:52:00.708Z,0.10
2023-04-20T11:54:29.621Z,0.00
2023-04-20T11:56:56.728Z,0.00
2023-04-20T11:59:24.015Z,0.00
2023-04-20T12:01:52.228Z,0.00
2023-04-20T12:04:19.562Z,0.00
2023-04-20T12:06:47.722Z,0.00
2023-04-20T12:09:15.136Z,0.00
2023-04-20T12:11:42.454Z,0.00
2023-04-20T12:14:09.592Z,0.00
2023-04-20T12:16:36.842Z,0.00
2023-04-20T12:19:03.908Z,0.00
2023-04-20T12:21:34.617Z,0.00
2023-04-20T12:24:01.763Z,0.00
2023-04-20T12:26:37.916Z,0.00
2023-04-20T12:29:05.972Z,0.30
2023-04-20T12:31:33.327Z,0.00
2023-04-20T12:34:03.761Z,0.00
2023-04-20T12:36:34.346Z,0.00
2023-04-20T12:39:03.792Z,0.00
2023-04-20T12:41:32.119Z,0.00
2023-04-20T12:43:59.298Z,0.00
2023-04-20T12:46:27.032Z,0.00
2023-04-20T12:48:57.681Z,0.00
2023-04-20T12:51:25.014Z,0.00
2023-04-20T12:53:52.686Z,0.00
2023-04-20T12:56:20.112Z,0.00
2023-04-20T12:58:47.947Z,0.00
2023-04-20T13:01:15.060Z,0.00
2023-04-20T13:03:42.726Z,0.00
2023-04-20T13:06:14.183Z,0.00
2023-04-20T13:08:41.569Z,0.00
2023-04-20T13:11:15.288Z,0.00
2023-04-20T13:13:42.461Z,0.00
2023-04-20T13:16:10.079Z,0.00
2023-04-20T13:18:37.821Z,0.00
2023-04-20T13:21:04.966Z,0.15
2023-04-20T13:23:32.079Z,0.00
2023-04-20T13:26:01.586Z,0.00
2023-04-20T13:28:28.919Z,0.00
2023-04-20T13:30:57.553Z,0.00
2023-04-20T13:33:24.850Z,0.00
2023-04-20T13:35:54.631Z,0.00
2023-04-20T13:38:21.894Z,0.03
2023-04-20T13:40:49.395Z,0.00
2023-04-20T13:43:17.221Z,0.00
2023-04-20T13:45:45.416Z,0.00
2023-04-20T13:48:12.593Z,0.00
2023-04-20T13:50:39.698Z,0.00
2023-04-20T13:53:09.002Z,0.10
2023-04-20T13:55:36.069Z,0.30
2023-04-20T13:58:03.268Z,0.00
2023-04-20T14:00:30.364Z,0.00
2023-04-20T14:02:57.548Z,0.00
2023-04-20T14:05:24.530Z,0.00
2023-04-20T14:07:51.546Z,0.00
2023-04-20T14:10:18.565Z,0.00
2023-04-20T14:12:45.464Z,0.00
2023-04-20T14:15:14.011Z,0.03
2023-04-20T14:17:41.011Z,0.10
2023-04-20T14:20:09.304Z,0.00
2023-04-20T14:22:38.184Z,0.10
2023-04-20T14:25:36.176Z,0.10
2023-04-20T14:28:03.165Z,0.10
2023-04-20T14:30:30.312Z,0.20
2023-04-20T14:32:58.372Z,0.15
2023-04-20T14:35:26.383Z,0.10
2023-04-20T14:37:53.628Z,0.20
2023-04-20T14:41:13.866Z,0.10
2023-04-20T14:43:41.188Z,0.10
2023-04-20T14:46:08.295Z,0.10
2023-04-20T14:48:38.061Z,0.10
2023-04-20T14:51:05.623Z,0.10
2023-04-20T14:53:33.256Z,0.40
2023-04-20T14:56:00.236Z,0.03
2023-04-20T14:58:27.442Z,0.10
2023-04-20T15:00:54.538Z,0.25
2023-04-20T15:03:21.745Z,0.20
2023-04-20T15:05:49.656Z,0.20
2023-04-20T15:08:16.969Z,0.30
2023-04-20T15:10:44.361Z,0.52
2023-04-20T15:13:11.533Z,0.10
2023-04-20T15:15:48.142Z,0.10
2023-04-20T15:18:16.519Z,0.10
2023-04-20T15:20:43.493Z,0.10
2023-04-20T15:23:15.470Z,0.10
2023-04-20T15:25:42.698Z,0.17
2023-04-20T15:28:09.620Z,0.20
2023-04-20T15:30:36.611Z,0.60
2023-04-20T15:33:05.242Z,0.20
2023-04-20T15:35:33.337Z,0.15
2023-04-20T15:38:00.451Z,0.20
2023-04-20T15:40:27.586Z,0.10
2023-04-20T15:42:57.731Z,0.25
2023-04-20T15:45:24.834Z,0.28
2023-04-20T15:47:52.037Z,0.32
2023-04-20T15:50:19.117Z,0.17
2023-04-20T15:52:49.525Z,0.30
2023-04-20T15:55:16.897Z,0.38
2023-04-20T15:57:44.676Z,0.38
2023-04-20T16:00:12.711Z,0.10
2023-04-20T16:02:41.134Z,0.60
2023-04-20T16:05:09.420Z,0.40
2023-04-20T16:07:36.554Z,0.30
2023-04-20T16:10:06.541Z,0.47
2023-04-20T16:12:39.532Z,0.10
2023-04-20T16:15:07.129Z,0.40
2023-04-20T16:17:34.138Z,0.17
2023-04-20T16:20:02.234Z,0.63
2023-04-20T16:22:29.457Z,0.30
2023-04-20T16:24:56.747Z,0.10
2023-04-20T16:27:23.741Z,0.20
2023-04-20T16:29:52.014Z,0.47
2023-04-20T16:32:19.278Z,0.20
2023-04-20T16:34:46.408Z,0.30
2023-04-20T16:37:13.510Z,0.20
2023-04-20T16:39:40.907Z,0.40
2023-04-20T16:42:08.106Z,0.10
2023-04-20T16:44:35.303Z,0.10
2023-04-20T16:47:02.606Z,0.10
2023-04-20T16:49:29.656Z,0.38
2023-04-20T16:52:02.584Z,0.10
2023-04-20T16:54:29.893Z,0.10
2023-04-20T16:56:58.420Z,0.20
2023-04-20T16:59:25.500Z,0.10
2023-04-20T17:01:53.396Z,0.10
2023-04-20T17:04:20.859Z,0.30
2023-04-20T17:06:48.328Z,0.30
2023-04-20T17:09:15.332Z,0.28
2023-04-20T17:11:42.471Z,0.10
2023-04-20T17:14:09.605Z,0.03
2023-04-20T17:16:36.759Z,0.10
2023-04-20T17:19:04.044Z,0.20
2023-04-20T17:21:31.201Z,0.10
2023-04-20T17:23:58.765Z,0.10
2023-04-20T17:26:28.389Z,0.43
2023-04-20T17:28:56.170Z,0.20
2023-04-20T17:31:23.328Z,0.05
2023-04-20T17:33:50.759Z,0.03
2023-04-20T17:36:17.988Z,0.00
2023-04-20T17:38:45.176Z,0.10
2023-04-20T17:41:13.509Z,0.35
2023-04-20T17:43:40.957Z,0.45
2023-04-20T17:46:08.128Z,0.52
2023-04-20T17:48:35.272Z,0.38
2023-04-20T17:51:02.316Z,0.22
2023-04-20T17:53:50.887Z,0.20
2023-04-20T17:56:38.316Z,0.10
2023-04-20T17:59:06.438Z,0.10
2023-04-20T18:01:35.872Z,0.25
2023-04-20T18:04:03.696Z,6.40
2023-04-20T18:06:33.192Z,0.30
2023-04-20T18:09:00.607Z,0.40
2023-04-20T18:11:28.158Z,0.52
2023-04-20T18:13:59.544Z,0.20
2023-04-20T18:16:31.687Z,0.88
2023-04-20T18:18:58.794Z,0.10
2023-04-20T18:21:25.718Z,0.85
2023-04-20T18:23:53.019Z,0.50
2023-04-20T18:26:26.451Z,0.25
2023-04-20T18:29:07.231Z,1.02
2023-04-20T18:31:39.132Z,0.20
2023-04-20T18:34:14.849Z,0.40
2023-04-20T18:36:56.430Z,0.17
2023-04-20T18:39:27.823Z,0.35
2023-04-20T18:42:16.442Z,0.85
2023-04-20T18:44:46.750Z,0.22
2023-04-20T18:47:18.829Z,2.53
2023-04-20T18:49:46.513Z,0.98
2023-04-20T18:52:13.843Z,0.30
2023-04-20T18:54:43.418Z,0.40
2023-04-20T18:57:10.516Z,0.33
2023-04-20T18:59:37.546Z,0.20
2023-04-20T19:02:04.784Z,0.98
2023-04-20T19:04:35.282Z,0.40
2023-04-20T19:07:05.579Z,0.28
2023-04-20T19:09:32.492Z,0.40
2023-04-20T19:11:59.558Z,1.05
2023-04-20T19:14:26.652Z,0.37
2023-04-20T19:16:53.712Z,1.23
2023-04-20T19:19:20.757Z,0.40
2023-04-20T19:21:48.432Z,0.77
2023-04-20T19:24:18.262Z,0.40
2023-04-20T19:26:45.774Z,0.40
2023-04-20T19:29:12.756Z,0.82
2023-04-20T19:31:42.073Z,0.20
2023-04-20T19:34:09.317Z,0.30
2023-04-20T19:36:36.533Z,0.30
2023-04-20T19:39:04.074Z,0.40
2023-04-20T19:41:31.299Z,1.07
2023-04-20T19:43:59.688Z,0.40
2023-04-20T19:46:28.271Z,0.30
2023-04-20T19:48:55.251Z,0.30
2023-04-20T19:51:25.295Z,0.70
2023-04-20T19:53:52.578Z,0.33
2023-04-20T19:56:19.996Z,0.53
2023-04-20T19:59:13.265Z,0.83
2023-04-20T20:01:40.481Z,0.40
2023-04-20T20:04:08.074Z,0.50
2023-04-20T20:06:36.030Z,0.87
2023-04-20T20:09:04.328Z,0.70
2023-04-20T20:11:31.470Z,2.77
2023-04-20T20:13:58.659Z,0.70
2023-04-20T20:16:29.312Z,1.07
2023-04-20T20:18:56.538Z,1.33
2023-04-20T20:21:25.251Z,1.37
2023-04-20T20:24:23.140Z,0.97
2023-04-20T20:26:50.268Z,1.03
2023-04-20T20:29:20.915Z,0.83
2023-04-20T20:31:48.441Z,0.80
2023-04-20T20:34:15.477Z,0.37
2023-04-20T20:36:45.050Z,0.40
2023-04-20T20:39:13.813Z,1.10
2023-04-20T20:41:42.757Z,0.97
2023-04-20T20:44:13.048Z,1.97
2023-04-20T20:46:40.399Z,0.93
2023-04-20T20:49:07.662Z,0.83
2023-04-20T20:51:34.920Z,1.17
2023-04-20T20:54:02.216Z,1.00
2023-04-20T20:56:29.482Z,1.30
2023-04-20T20:58:56.973Z,5.20
2023-04-20T21:01:24.543Z,0.60
2023-04-20T21:03:52.067Z,0.80
2023-04-20T21:06:19.430Z,1.87
2023-04-20T21:08:46.624Z,1.20
2023-04-20T21:11:13.557Z,1.30
2023-04-20T21:13:40.826Z,0.90
2023-04-20T21:16:11.198Z,0.40
2023-04-20T21:18:38.347Z,0.97
2023-04-20T21:21:05.599Z,1.10
2023-04-20T21:23:32.792Z,1.20
2023-04-20T21:25:59.831Z,1.23
2023-04-20T21:28:26.808Z,1.03
2023-04-20T21:30:54.199Z,1.20
2023-04-20T21:33:21.244Z,3.30
2023-04-20T21:35:48.317Z,1.83
2023-04-20T21:38:15.335Z,2.03
2023-04-20T21:40:42.240Z,1.70
2023-04-20T21:43:09.307Z,3.33
2023-04-20T21:45:36.387Z,3.00
2023-04-20T21:48:03.451Z,2.03
2023-04-20T21:50:30.450Z,1.97
2023-04-20T21:52:57.475Z,3.07
2023-04-20T21:55:24.560Z,2.93
2023-04-20T21:57:51.741Z,3.07
2023-04-20T22:00:18.784Z,1.67
2023-04-20T22:02:45.973Z,2.97
2023-04-20T22:05:13.122Z,1.37
2023-04-20T22:07:40.225Z,1.47
2023-04-20T22:10:07.850Z,2.00
2023-04-20T22:12:40.190Z,1.90
2023-04-20T22:15:11.511Z,1.90
2023-04-20T22:17:38.468Z,1.70
2023-04-20T22:20:07.661Z,1.27
2023-04-20T22:22:35.464Z,1.97
2023-04-20T22:25:04.412Z,1.90
2023-04-20T22:27:32.466Z,2.10
2023-04-20T22:29:59.556Z,2.23
2023-04-20T22:32:26.737Z,2.87
2023-04-20T22:34:53.786Z,2.43
2023-04-20T22:37:20.853Z,3.67
2023-04-20T22:39:47.814Z,2.17
2023-04-20T22:42:14.752Z,1.50
2023-04-20T22:44:41.781Z,2.73
2023-04-20T22:47:08.806Z,2.93
2023-04-20T22:49:37.552Z,2.10
2023-04-20T22:52:04.654Z,2.03
2023-04-20T22:54:31.758Z,3.17
2023-04-20T22:56:58.824Z,2.57
2023-04-20T22:59:25.856Z,3.70
2023-04-20T23:01:53.070Z,2.33
2023-04-20T23:04:20.351Z,3.20
2023-04-20T23:06:47.355Z,2.17
2023-04-20T23:09:20.598Z,2.03
2023-04-20T23:11:47.757Z,2.17
2023-04-20T23:14:14.703Z,1.80
2023-04-20T23:16:41.968Z,2.97
2023-04-20T23:19:09.049Z,2.17
2023-04-20T23:21:36.205Z,1.97
2023-04-20T23:24:03.349Z,2.43
2023-04-20T23:26:30.491Z,2.13
2023-04-20T23:28:57.408Z,3.30
2023-04-20T23:31:24.675Z,2.93
2023-04-20T23:42:40.158Z,3.07
2023-04-20T23:45:07.721Z,1.90
2023-04-20T23:47:34.873Z,1.77
2023-04-20T23:50:01.806Z,2.77
2023-04-20T23:52:34.034Z,2.90
2023-04-20T23:55:02.256Z,2.23
2023-04-20T23:57:29.990Z,2.53
2023-04-20T23:59:59.790Z,2.90
